sensor_id;sensor_type;location;lat;lon;timestamp;P1;durP1;ratioP1;P2;durP2;ratioP2
76477;SDS011;65309;49.790;18.972;2023-07-13T00:00:02;5.05;;;3.83;;
76477;SDS011;65309;49.790;18.972;2023-07-13T00:05:30;5.80;;;3.63;;
76477;SDS011;65309;49.790;18.972;2023-07-13T00:10:32;11.60;;;3.50;;
76477;SDS011;65309;49.790;18.972;2023-07-13T00:15:36;5.82;;;3.35;;
76477;SDS011;65309;49.790;18.972;2023-07-13T00:20:38;5.45;;;3.40;;
76477;SDS011;65309;49.790;18.972;2023-07-13T00:25:42;4.03;;;2.40;;
76477;SDS011;65309;49.790;18.972;2023-07-13T00:30:46;6.03;;;3.20;;
76477;SDS011;65309;49.790;18.972;2023-07-13T00:35:48;7.05;;;3.72;;
76477;SDS011;65309;49.790;18.972;2023-07-13T00:40:50;4.65;;;3.00;;
76477;SDS011;65309;49.790;18.972;2023-07-13T00:46:12;3.80;;;2.63;;
76477;SDS011;65309;49.790;18.972;2023-07-13T00:51:19;4.80;;;3.08;;
76477;SDS011;65309;49.790;18.972;2023-07-13T00:56:25;3.45;;;2.55;;
76477;SDS011;65309;49.790;18.972;2023-07-13T01:01:29;4.07;;;2.25;;
76477;SDS011;65309;49.790;18.972;2023-07-13T01:06:31;5.82;;;2.78;;
76477;SDS011;65309;49.790;18.972;2023-07-13T01:11:34;3.78;;;2.78;;
76477;SDS011;65309;49.790;18.972;2023-07-13T01:16:38;3.28;;;2.67;;
76477;SDS011;65309;49.790;18.972;2023-07-13T01:21:43;3.58;;;2.63;;
76477;SDS011;65309;49.790;18.972;2023-07-13T01:26:45;4.45;;;2.53;;
76477;SDS011;65309;49.790;18.972;2023-07-13T01:36:50;3.00;;;2.20;;
76477;SDS011;65309;49.790;18.972;2023-07-13T01:41:55;4.10;;;2.80;;
76477;SDS011;65309;49.790;18.972;2023-07-13T01:47:15;5.05;;;2.95;;
76477;SDS011;65309;49.790;18.972;2023-07-13T01:52:18;5.10;;;2.70;;
76477;SDS011;65309;49.790;18.972;2023-07-13T01:57:21;2.55;;;2.28;;
76477;SDS011;65309;49.790;18.972;2023-07-13T02:07:26;4.63;;;2.55;;
76477;SDS011;65309;49.790;18.972;2023-07-13T02:12:28;5.10;;;2.75;;
76477;SDS011;65309;49.790;18.972;2023-07-13T02:22:34;3.72;;;2.60;;
76477;SDS011;65309;49.790;18.972;2023-07-13T02:27:36;4.43;;;2.17;;
76477;SDS011;65309;49.790;18.972;2023-07-13T02:32:38;3.67;;;2.45;;
76477;SDS011;65309;49.790;18.972;2023-07-13T02:37:42;3.13;;;2.40;;
76477;SDS011;65309;49.790;18.972;2023-07-13T02:42:44;2.92;;;2.28;;
76477;SDS011;65309;49.790;18.972;2023-07-13T02:52:49;3.28;;;1.83;;
76477;SDS011;65309;49.790;18.972;2023-07-13T02:57:51;3.60;;;2.30;;
76477;SDS011;65309;49.790;18.972;2023-07-13T03:02:53;2.90;;;2.22;;
76477;SDS011;65309;49.790;18.972;2023-07-13T03:08:00;4.95;;;2.58;;
76477;SDS011;65309;49.790;18.972;2023-07-13T03:13:02;2.83;;;2.20;;
76477;SDS011;65309;49.790;18.972;2023-07-13T03:18:04;3.88;;;2.42;;
76477;SDS011;65309;49.790;18.972;2023-07-13T03:23:08;3.00;;;2.50;;
76477;SDS011;65309;49.790;18.972;2023-07-13T03:28:10;4.40;;;2.30;;
76477;SDS011;65309;49.790;18.972;2023-07-13T03:33:12;2.83;;;2.00;;
76477;SDS011;65309;49.790;18.972;2023-07-13T03:38:16;3.88;;;2.15;;
76477;SDS011;65309;49.790;18.972;2023-07-13T03:43:18;3.13;;;2.08;;
76477;SDS011;65309;49.790;18.972;2023-07-13T03:48:22;3.38;;;2.17;;
76477;SDS011;65309;49.790;18.972;2023-07-13T03:53:25;5.55;;;2.65;;
76477;SDS011;65309;49.790;18.972;2023-07-13T03:58:29;3.72;;;2.50;;
76477;SDS011;65309;49.790;18.972;2023-07-13T04:03:33;3.05;;;2.15;;
76477;SDS011;65309;49.790;18.972;2023-07-13T04:08:37;5.35;;;2.33;;
76477;SDS011;65309;49.790;18.972;2023-07-13T04:13:39;2.90;;;2.20;;
76477;SDS011;65309;49.790;18.972;2023-07-13T04:18:41;2.78;;;2.40;;
76477;SDS011;65309;49.790;18.972;2023-07-13T04:23:45;3.55;;;2.60;;
76477;SDS011;65309;49.790;18.972;2023-07-13T04:28:47;2.70;;;2.22;;
76477;SDS011;65309;49.790;18.972;2023-07-13T04:33:49;3.40;;;2.40;;
76477;SDS011;65309;49.790;18.972;2023-07-13T04:38:54;3.42;;;2.55;;
76477;SDS011;65309;49.790;18.972;2023-07-13T04:43:56;5.88;;;2.97;;
76477;SDS011;65309;49.790;18.972;2023-07-13T04:48:58;4.57;;;2.95;;
76477;SDS011;65309;49.790;18.972;2023-07-13T04:54:01;3.13;;;2.83;;
76477;SDS011;65309;49.790;18.972;2023-07-13T04:59:03;3.15;;;2.30;;
76477;SDS011;65309;49.790;18.972;2023-07-13T05:04:05;2.95;;;2.20;;
76477;SDS011;65309;49.790;18.972;2023-07-13T05:09:09;3.28;;;2.58;;
76477;SDS011;65309;49.790;18.972;2023-07-13T05:14:11;3.45;;;2.83;;
76477;SDS011;65309;49.790;18.972;2023-07-13T05:19:13;4.47;;;2.80;;
76477;SDS011;65309;49.790;18.972;2023-07-13T05:24:17;4.05;;;3.15;;
76477;SDS011;65309;49.790;18.972;2023-07-13T05:29:26;5.40;;;3.47;;
76477;SDS011;65309;49.790;18.972;2023-07-13T05:34:28;5.63;;;3.40;;
76477;SDS011;65309;49.790;18.972;2023-07-13T05:39:32;7.63;;;3.53;;
76477;SDS011;65309;49.790;18.972;2023-07-13T05:44:34;5.80;;;3.65;;
76477;SDS011;65309;49.790;18.972;2023-07-13T05:49:36;7.15;;;3.30;;
76477;SDS011;65309;49.790;18.972;2023-07-13T05:54:40;5.72;;;3.67;;
76477;SDS011;65309;49.790;18.972;2023-07-13T05:59:42;4.72;;;3.20;;
76477;SDS011;65309;49.790;18.972;2023-07-13T06:04:44;5.40;;;3.65;;
76477;SDS011;65309;49.790;18.972;2023-07-13T06:09:47;6.63;;;3.45;;
76477;SDS011;65309;49.790;18.972;2023-07-13T06:14:49;7.25;;;3.45;;
76477;SDS011;65309;49.790;18.972;2023-07-13T06:19:51;4.20;;;3.25;;
76477;SDS011;65309;49.790;18.972;2023-07-13T06:24:55;9.77;;;3.58;;
76477;SDS011;65309;49.790;18.972;2023-07-13T06:29:57;6.00;;;3.60;;
76477;SDS011;65309;49.790;18.972;2023-07-13T06:34:59;7.07;;;3.70;;
76477;SDS011;65309;49.790;18.972;2023-07-13T06:40:02;6.47;;;4.25;;
76477;SDS011;65309;49.790;18.972;2023-07-13T06:45:05;5.13;;;3.80;;
76477;SDS011;65309;49.790;18.972;2023-07-13T06:50:08;4.60;;;3.50;;
76477;SDS011;65309;49.790;18.972;2023-07-13T06:55:12;6.00;;;3.55;;
76477;SDS011;65309;49.790;18.972;2023-07-13T07:00:15;6.32;;;3.97;;
76477;SDS011;65309;49.790;18.972;2023-07-13T07:05:17;7.90;;;4.40;;
76477;SDS011;65309;49.790;18.972;2023-07-13T07:10:25;5.57;;;4.10;;
76477;SDS011;65309;49.790;18.972;2023-07-13T07:15:27;6.22;;;4.65;;
76477;SDS011;65309;49.790;18.972;2023-07-13T07:20:30;5.13;;;4.20;;
76477;SDS011;65309;49.790;18.972;2023-07-13T07:25:35;7.32;;;4.00;;
76477;SDS011;65309;49.790;18.972;2023-07-13T07:30:43;6.15;;;3.60;;
76477;SDS011;65309;49.790;18.972;2023-07-13T07:35:48;7.70;;;4.35;;
76477;SDS011;65309;49.790;18.972;2023-07-13T07:40:55;7.03;;;4.38;;
76477;SDS011;65309;49.790;18.972;2023-07-13T07:46:00;7.15;;;4.47;;
76477;SDS011;65309;49.790;18.972;2023-07-13T07:51:04;6.60;;;5.25;;
76477;SDS011;65309;49.790;18.972;2023-07-13T07:56:07;8.32;;;4.88;;
76477;SDS011;65309;49.790;18.972;2023-07-13T08:01:14;8.88;;;4.82;;
76477;SDS011;65309;49.790;18.972;2023-07-13T08:06:20;6.72;;;4.90;;
76477;SDS011;65309;49.790;18.972;2023-07-13T08:11:27;8.60;;;5.82;;
76477;SDS011;65309;49.790;18.972;2023-07-13T08:16:32;10.27;;;5.57;;
76477;SDS011;65309;49.790;18.972;2023-07-13T08:21:35;6.63;;;5.00;;
76477;SDS011;65309;49.790;18.972;2023-07-13T08:26:38;6.63;;;4.45;;
76477;SDS011;65309;49.790;18.972;2023-07-13T08:31:40;9.07;;;5.43;;
76477;SDS011;65309;49.790;18.972;2023-07-13T08:36:42;7.07;;;4.95;;
76477;SDS011;65309;49.790;18.972;2023-07-13T08:41:46;10.20;;;6.00;;
76477;SDS011;65309;49.790;18.972;2023-07-13T08:46:53;8.15;;;5.78;;
76477;SDS011;65309;49.790;18.972;2023-07-13T08:51:59;8.45;;;5.75;;
76477;SDS011;65309;49.790;18.972;2023-07-13T08:57:10;10.90;;;5.80;;
76477;SDS011;65309;49.790;18.972;2023-07-13T09:02:17;8.75;;;5.57;;
76477;SDS011;65309;49.790;18.972;2023-07-13T09:07:28;7.95;;;5.85;;
76477;SDS011;65309;49.790;18.972;2023-07-13T09:12:48;8.90;;;6.53;;
76477;SDS011;65309;49.790;18.972;2023-07-13T09:17:59;6.70;;;4.63;;
76477;SDS011;65309;49.790;18.972;2023-07-13T09:23:05;4.35;;;2.65;;
76477;SDS011;65309;49.790;18.972;2023-07-13T09:28:15;8.10;;;3.60;;
76477;SDS011;65309;49.790;18.972;2023-07-13T09:33:20;4.63;;;3.83;;
76477;SDS011;65309;49.790;18.972;2023-07-13T09:38:22;6.22;;;4.18;;
76477;SDS011;65309;49.790;18.972;2023-07-13T09:43:29;9.32;;;5.75;;
76477;SDS011;65309;49.790;18.972;2023-07-13T09:48:34;8.23;;;6.18;;
76477;SDS011;65309;49.790;18.972;2023-07-13T09:53:43;8.65;;;7.07;;
76477;SDS011;65309;49.790;18.972;2023-07-13T09:58:47;13.82;;;5.57;;
76477;SDS011;65309;49.790;18.972;2023-07-13T10:03:53;14.05;;;8.27;;
76477;SDS011;65309;49.790;18.972;2023-07-13T10:08:56;15.75;;;12.15;;
76477;SDS011;65309;49.790;18.972;2023-07-13T10:14:01;14.95;;;12.40;;
76477;SDS011;65309;49.790;18.972;2023-07-13T10:19:05;10.10;;;9.07;;
76477;SDS011;65309;49.790;18.972;2023-07-13T10:24:14;8.55;;;7.63;;
76477;SDS011;65309;49.790;18.972;2023-07-13T10:29:22;9.32;;;6.68;;
76477;SDS011;65309;49.790;18.972;2023-07-13T10:34:28;11.77;;;6.47;;
76477;SDS011;65309;49.790;18.972;2023-07-13T10:39:30;11.68;;;6.90;;
76477;SDS011;65309;49.790;18.972;2023-07-13T10:44:36;11.95;;;8.75;;
76477;SDS011;65309;49.790;18.972;2023-07-13T10:49:38;9.82;;;8.55;;
76477;SDS011;65309;49.790;18.972;2023-07-13T10:54:42;9.93;;;8.82;;
76477;SDS011;65309;49.790;18.972;2023-07-13T11:04:49;11.30;;;7.72;;
76477;SDS011;65309;49.790;18.972;2023-07-13T11:09:55;7.45;;;5.78;;
76477;SDS011;65309;49.790;18.972;2023-07-13T11:15:05;7.60;;;6.75;;
76477;SDS011;65309;49.790;18.972;2023-07-13T11:20:20;6.70;;;5.88;;
76477;SDS011;65309;49.790;18.972;2023-07-13T11:25:26;6.70;;;6.07;;
76477;SDS011;65309;49.790;18.972;2023-07-13T11:30:34;9.55;;;5.38;;
76477;SDS011;65309;49.790;18.972;2023-07-13T11:35:40;6.03;;;4.88;;
76477;SDS011;65309;49.790;18.972;2023-07-13T11:40:47;6.47;;;4.47;;
76477;SDS011;65309;49.790;18.972;2023-07-13T11:45:58;6.35;;;4.88;;
76477;SDS011;65309;49.790;18.972;2023-07-13T11:51:01;5.55;;;4.30;;
76477;SDS011;65309;49.790;18.972;2023-07-13T11:56:07;5.07;;;4.07;;
76477;SDS011;65309;49.790;18.972;2023-07-13T12:01:15;5.32;;;3.85;;
76477;SDS011;65309;49.790;18.972;2023-07-13T12:06:27;3.80;;;2.80;;
76477;SDS011;65309;49.790;18.972;2023-07-13T12:11:34;5.00;;;3.28;;
76477;SDS011;65309;49.790;18.972;2023-07-13T12:16:43;3.55;;;3.00;;
76477;SDS011;65309;49.790;18.972;2023-07-13T12:21:48;3.22;;;2.70;;
76477;SDS011;65309;49.790;18.972;2023-07-13T12:26:52;4.38;;;2.33;;
76477;SDS011;65309;49.790;18.972;2023-07-13T12:31:58;3.60;;;2.55;;
76477;SDS011;65309;49.790;18.972;2023-07-13T12:37:02;3.60;;;2.80;;
76477;SDS011;65309;49.790;18.972;2023-07-13T12:42:13;3.22;;;2.38;;
76477;SDS011;65309;49.790;18.972;2023-07-13T12:47:28;5.13;;;3.05;;
76477;SDS011;65309;49.790;18.972;2023-07-13T12:52:31;2.63;;;2.03;;
76477;SDS011;65309;49.790;18.972;2023-07-13T12:57:39;2.85;;;2.38;;
76477;SDS011;65309;49.790;18.972;2023-07-13T13:02:43;3.25;;;2.53;;
76477;SDS011;65309;49.790;18.972;2023-07-13T13:07:46;3.60;;;2.80;;
76477;SDS011;65309;49.790;18.972;2023-07-13T13:12:49;4.38;;;3.05;;
76477;SDS011;65309;49.790;18.972;2023-07-13T13:17:53;4.28;;;2.85;;
76477;SDS011;65309;49.790;18.972;2023-07-13T13:22:55;3.80;;;3.22;;
76477;SDS011;65309;49.790;18.972;2023-07-13T13:27:58;4.93;;;3.30;;
76477;SDS011;65309;49.790;18.972;2023-07-13T13:33:01;4.22;;;3.15;;
76477;SDS011;65309;49.790;18.972;2023-07-13T13:38:04;5.80;;;3.42;;
76477;SDS011;65309;49.790;18.972;2023-07-13T13:43:15;2.95;;;2.55;;
76477;SDS011;65309;49.790;18.972;2023-07-13T13:48:23;4.63;;;3.10;;
76477;SDS011;65309;49.790;18.972;2023-07-13T13:53:31;3.40;;;2.85;;
76477;SDS011;65309;49.790;18.972;2023-07-13T13:58:34;4.75;;;3.53;;
76477;SDS011;65309;49.790;18.972;2023-07-13T14:03:37;6.78;;;3.78;;
76477;SDS011;65309;49.790;18.972;2023-07-13T14:08:39;4.18;;;3.45;;
76477;SDS011;65309;49.790;18.972;2023-07-13T14:13:43;4.25;;;3.20;;
76477;SDS011;65309;49.790;18.972;2023-07-13T14:18:50;3.92;;;2.95;;
76477;SDS011;65309;49.790;18.972;2023-07-13T14:23:53;3.40;;;2.95;;
76477;SDS011;65309;49.790;18.972;2023-07-13T14:28:56;3.13;;;2.42;;
76477;SDS011;65309;49.790;18.972;2023-07-13T14:34:00;6.10;;;2.72;;
76477;SDS011;65309;49.790;18.972;2023-07-13T14:39:05;3.85;;;2.97;;
76477;SDS011;65309;49.790;18.972;2023-07-13T14:44:14;3.95;;;2.53;;
76477;SDS011;65309;49.790;18.972;2023-07-13T14:49:21;2.70;;;2.28;;
76477;SDS011;65309;49.790;18.972;2023-07-13T14:54:27;3.03;;;2.63;;
76477;SDS011;65309;49.790;18.972;2023-07-13T14:59:29;2.95;;;2.58;;
76477;SDS011;65309;49.790;18.972;2023-07-13T15:04:33;6.13;;;3.70;;
76477;SDS011;65309;49.790;18.972;2023-07-13T15:09:36;3.35;;;2.70;;
76477;SDS011;65309;49.790;18.972;2023-07-13T15:14:38;4.55;;;3.00;;
76477;SDS011;65309;49.790;18.972;2023-07-13T15:19:41;4.47;;;3.65;;
76477;SDS011;65309;49.790;18.972;2023-07-13T15:24:44;5.00;;;3.53;;
76477;SDS011;65309;49.790;18.972;2023-07-13T15:29:50;5.45;;;3.50;;
76477;SDS011;65309;49.790;18.972;2023-07-13T15:34:54;4.22;;;3.83;;
76477;SDS011;65309;49.790;18.972;2023-07-13T15:39:57;6.18;;;4.40;;
76477;SDS011;65309;49.790;18.972;2023-07-13T15:44:59;5.20;;;4.20;;
76477;SDS011;65309;49.790;18.972;2023-07-13T15:50:08;6.60;;;4.57;;
76477;SDS011;65309;49.790;18.972;2023-07-13T15:55:14;5.30;;;4.70;;
76477;SDS011;65309;49.790;18.972;2023-07-13T16:00:19;5.68;;;4.75;;
76477;SDS011;65309;49.790;18.972;2023-07-13T16:05:24;5.18;;;4.68;;
76477;SDS011;65309;49.790;18.972;2023-07-13T16:10:30;6.53;;;4.55;;
76477;SDS011;65309;49.790;18.972;2023-07-13T16:15:34;5.88;;;5.00;;
76477;SDS011;65309;49.790;18.972;2023-07-13T16:20:37;7.15;;;4.30;;
76477;SDS011;65309;49.790;18.972;2023-07-13T16:25:43;4.18;;;3.78;;
76477;SDS011;65309;49.790;18.972;2023-07-13T16:30:47;5.85;;;3.50;;
76477;SDS011;65309;49.790;18.972;2023-07-13T16:35:51;4.05;;;3.50;;
76477;SDS011;65309;49.790;18.972;2023-07-13T16:40:54;6.47;;;4.10;;
76477;SDS011;65309;49.790;18.972;2023-07-13T16:46:00;5.68;;;3.80;;
76477;SDS011;65309;49.790;18.972;2023-07-13T16:51:06;4.53;;;4.13;;
76477;SDS011;65309;49.790;18.972;2023-07-13T16:56:09;4.63;;;3.50;;
76477;SDS011;65309;49.790;18.972;2023-07-13T17:01:19;4.93;;;3.90;;
76477;SDS011;65309;49.790;18.972;2023-07-13T17:06:23;4.95;;;3.83;;
76477;SDS011;65309;49.790;18.972;2023-07-13T17:11:26;5.28;;;4.03;;
76477;SDS011;65309;49.790;18.972;2023-07-13T17:16:32;4.03;;;3.63;;
76477;SDS011;65309;49.790;18.972;2023-07-13T17:21:35;6.38;;;4.05;;
76477;SDS011;65309;49.790;18.972;2023-07-13T17:26:37;4.95;;;4.45;;
76477;SDS011;65309;49.790;18.972;2023-07-13T17:31:39;6.22;;;4.15;;
76477;SDS011;65309;49.790;18.972;2023-07-13T17:36:43;6.20;;;4.15;;
76477;SDS011;65309;49.790;18.972;2023-07-13T17:41:45;5.90;;;3.60;;
76477;SDS011;65309;49.790;18.972;2023-07-13T17:46:48;5.28;;;3.63;;
76477;SDS011;65309;49.790;18.972;2023-07-13T17:51:52;4.55;;;3.90;;
76477;SDS011;65309;49.790;18.972;2023-07-13T17:56:54;5.07;;;4.20;;
76477;SDS011;65309;49.790;18.972;2023-07-13T18:01:56;5.07;;;4.05;;
76477;SDS011;65309;49.790;18.972;2023-07-13T18:07:00;5.05;;;4.20;;
76477;SDS011;65309;49.790;18.972;2023-07-13T18:12:10;7.18;;;4.18;;
76477;SDS011;65309;49.790;18.972;2023-07-13T18:17:13;7.05;;;5.38;;
76477;SDS011;65309;49.790;18.972;2023-07-13T18:22:17;7.07;;;5.15;;
76477;SDS011;65309;49.790;18.972;2023-07-13T18:27:20;5.45;;;4.35;;
76477;SDS011;65309;49.790;18.972;2023-07-13T18:32:22;6.45;;;5.15;;
76477;SDS011;65309;49.790;18.972;2023-07-13T18:37:26;5.32;;;4.72;;
76477;SDS011;65309;49.790;18.972;2023-07-13T18:42:28;5.82;;;4.93;;
76477;SDS011;65309;49.790;18.972;2023-07-13T18:47:31;6.85;;;5.30;;
76477;SDS011;65309;49.790;18.972;2023-07-13T18:52:38;6.10;;;5.18;;
76477;SDS011;65309;49.790;18.972;2023-07-13T18:57:40;5.75;;;5.15;;
76477;SDS011;65309;49.790;18.972;2023-07-13T19:02:42;7.50;;;5.70;;
76477;SDS011;65309;49.790;18.972;2023-07-13T19:07:49;6.03;;;4.97;;
76477;SDS011;65309;49.790;18.972;2023-07-13T19:12:52;7.88;;;5.95;;
76477;SDS011;65309;49.790;18.972;2023-07-13T19:17:56;10.55;;;5.82;;
76477;SDS011;65309;49.790;18.972;2023-07-13T19:23:01;8.10;;;6.35;;
76477;SDS011;65309;49.790;18.972;2023-07-13T19:28:15;8.18;;;6.25;;
76477;SDS011;65309;49.790;18.972;2023-07-13T19:38:30;7.15;;;5.80;;
76477;SDS011;65309;49.790;18.972;2023-07-13T19:43:32;8.43;;;6.45;;
76477;SDS011;65309;49.790;18.972;2023-07-13T19:48:38;7.95;;;6.43;;
76477;SDS011;65309;49.790;18.972;2023-07-13T19:53:41;8.70;;;7.72;;
76477;SDS011;65309;49.790;18.972;2023-07-13T19:58:43;8.73;;;6.78;;
76477;SDS011;65309;49.790;18.972;2023-07-13T20:03:49;10.25;;;6.50;;
76477;SDS011;65309;49.790;18.972;2023-07-13T20:08:53;9.60;;;7.30;;
76477;SDS011;65309;49.790;18.972;2023-07-13T20:13:55;11.95;;;9.85;;
76477;SDS011;65309;49.790;18.972;2023-07-13T20:18:57;9.25;;;7.07;;
76477;SDS011;65309;49.790;18.972;2023-07-13T20:24:00;7.72;;;6.40;;
76477;SDS011;65309;49.790;18.972;2023-07-13T20:29:03;8.63;;;7.00;;
76477;SDS011;65309;49.790;18.972;2023-07-13T20:34:12;10.07;;;6.60;;
76477;SDS011;65309;49.790;18.972;2023-07-13T20:39:19;8.00;;;6.68;;
76477;SDS011;65309;49.790;18.972;2023-07-13T20:44:21;11.23;;;7.03;;
76477;SDS011;65309;49.790;18.972;2023-07-13T20:49:23;6.82;;;6.13;;
76477;SDS011;65309;49.790;18.972;2023-07-13T20:54:30;9.95;;;6.45;;
76477;SDS011;65309;49.790;18.972;2023-07-13T20:59:33;7.13;;;5.82;;
76477;SDS011;65309;49.790;18.972;2023-07-13T21:04:35;9.35;;;6.13;;
76477;SDS011;65309;49.790;18.972;2023-07-13T21:09:39;6.18;;;5.25;;
76477;SDS011;65309;49.790;18.972;2023-07-13T21:14:41;5.90;;;5.30;;
76477;SDS011;65309;49.790;18.972;2023-07-13T21:19:43;6.65;;;5.28;;
76477;SDS011;65309;49.790;18.972;2023-07-13T21:24:47;7.95;;;4.60;;
76477;SDS011;65309;49.790;18.972;2023-07-13T21:29:49;5.40;;;4.55;;
76477;SDS011;65309;49.790;18.972;2023-07-13T21:34:54;7.88;;;5.25;;
76477;SDS011;65309;49.790;18.972;2023-07-13T21:39:58;5.90;;;4.25;;
76477;SDS011;65309;49.790;18.972;2023-07-13T21:45:04;5.53;;;4.75;;
76477;SDS011;65309;49.790;18.972;2023-07-13T21:50:15;6.00;;;4.53;;
76477;SDS011;65309;49.790;18.972;2023-07-13T21:55:23;5.53;;;4.55;;
76477;SDS011;65309;49.790;18.972;2023-07-13T22:00:28;5.40;;;3.97;;
76477;SDS011;65309;49.790;18.972;2023-07-13T22:05:30;7.72;;;4.82;;
76477;SDS011;65309;49.790;18.972;2023-07-13T22:10:33;5.70;;;4.70;;
76477;SDS011;65309;49.790;18.972;2023-07-13T22:15:36;6.85;;;4.60;;
76477;SDS011;65309;49.790;18.972;2023-07-13T22:20:39;5.80;;;4.78;;
76477;SDS011;65309;49.790;18.972;2023-07-13T22:25:42;4.47;;;3.80;;
76477;SDS011;65309;49.790;18.972;2023-07-13T22:30:45;6.32;;;4.68;;
76477;SDS011;65309;49.790;18.972;2023-07-13T22:35:49;5.55;;;4.90;;
76477;SDS011;65309;49.790;18.972;2023-07-13T22:40:54;8.82;;;4.38;;
76477;SDS011;65309;49.790;18.972;2023-07-13T22:45:57;5.78;;;4.65;;
76477;SDS011;65309;49.790;18.972;2023-07-13T22:51:00;5.07;;;3.83;;
76477;SDS011;65309;49.790;18.972;2023-07-13T22:56:04;6.72;;;4.53;;
76477;SDS011;65309;49.790;18.972;2023-07-13T23:01:09;5.88;;;4.25;;
76477;SDS011;65309;49.790;18.972;2023-07-13T23:06:18;7.50;;;4.78;;
76477;SDS011;65309;49.790;18.972;2023-07-13T23:11:24;5.53;;;4.60;;
76477;SDS011;65309;49.790;18.972;2023-07-13T23:16:27;5.20;;;3.97;;
76477;SDS011;65309;49.790;18.972;2023-07-13T23:21:32;5.88;;;4.72;;
76477;SDS011;65309;49.790;18.972;2023-07-13T23:26:36;4.70;;;4.22;;
76477;SDS011;65309;49.790;18.972;2023-07-13T23:31:39;4.25;;;3.78;;
76477;SDS011;65309;49.790;18.972;2023-07-13T23:36:41;4.90;;;4.40;;
76477;SDS011;65309;49.790;18.972;2023-07-13T23:41:45;5.32;;;4.38;;
76477;SDS011;65309;49.790;18.972;2023-07-13T23:46:49;5.43;;;3.80;;
76477;SDS011;65309;49.790;18.972;2023-07-13T23:51:53;4.65;;;3.05;;
76477;SDS011;65309;49.790;18.972;2023-07-13T23:56:58;4.47;;;3.58;;
